sensor_id;sensor_type;location;lat;lon;timestamp;temperature;humidity
33741;DHT22;20065;48.380;10.892;2024-01-15T00:00:30;0.50;99.90
33741;DHT22;20065;48.380;10.892;2024-01-15T00:03:16;0.40;99.90
33741;DHT22;20065;48.380;10.892;2024-01-15T00:06:02;0.30;99.90
33741;DHT22;20065;48.380;10.892;2024-01-15T00:08:48;0.30;99.90
33741;DHT22;20065;48.380;10.892;2024-01-15T00:11:34;0.30;99.90
33741;DHT22;20065;48.380;10.892;2024-01-15T00:14:20;0.30;99.90
33741;DHT22;20065;48.380;10.892;2024-01-15T00:17:06;0.20;99.90
33741;DHT22;20065;48.380;10.892;2024-01-15T00:19:53;0.20;99.90
33741;DHT22;20065;48.380;10.892;2024-01-15T00:22:39;0.20;99.90
33741;DHT22;20065;48.380;10.892;2024-01-15T00:25:25;0.10;99.90
33741;DHT22;20065;48.380;10.892;2024-01-15T00:28:11;0.10;99.90
33741;DHT22;20065;48.380;10.892;2024-01-15T00:30:57;0.10;99.90
33741;DHT22;20065;48.380;10.892;2024-01-15T00:33:43;0.00;99.90
33741;DHT22;20065;48.380;10.892;2024-01-15T00:36:29;0.00;99.90
33741;DHT22;20065;48.380;10.892;2024-01-15T00:39:15;0.10;99.90
33741;DHT22;20065;48.380;10.892;2024-01-15T00:42:02;0.10;99.90
33741;DHT22;20065;48.380;10.892;2024-01-15T00:44:50;0.10;99.90
33741;DHT22;20065;48.380;10.892;2024-01-15T00:47:36;0.10;99.90
33741;DHT22;20065;48.380;10.892;2024-01-15T00:50:22;0.10;99.90
33741;DHT22;20065;48.380;10.892;2024-01-15T00:53:08;0.10;99.90
33741;DHT22;20065;48.380;10.892;2024-01-15T00:55:54;0.10;99.90
33741;DHT22;20065;48.380;10.892;2024-01-15T00:58:40;0.10;99.90
33741;DHT22;20065;48.380;10.892;2024-01-15T01:01:26;0.00;99.90
33741;DHT22;20065;48.380;10.892;2024-01-15T01:04:13;0.00;99.90
33741;DHT22;20065;48.380;10.892;2024-01-15T01:06:59;-0.10;99.90
33741;DHT22;20065;48.380;10.892;2024-01-15T01:09:45;-0.10;99.90
33741;DHT22;20065;48.380;10.892;2024-01-15T01:12:31;-0.10;99.90
33741;DHT22;20065;48.380;10.892;2024-01-15T01:15:17;-0.20;99.90
33741;DHT22;20065;48.380;10.892;2024-01-15T01:18:04;-0.20;99.90
33741;DHT22;20065;48.380;10.892;2024-01-15T01:20:50;-0.20;99.90
33741;DHT22;20065;48.380;10.892;2024-01-15T01:23:36;-0.10;99.90
33741;DHT22;20065;48.380;10.892;2024-01-15T01:26:23;-0.10;99.90
33741;DHT22;20065;48.380;10.892;2024-01-15T01:29:09;0.00;99.90
33741;DHT22;20065;48.380;10.892;2024-01-15T01:31:55;-0.10;99.90
33741;DHT22;20065;48.380;10.892;2024-01-15T01:34:42;0.00;99.90
33741;DHT22;20065;48.380;10.892;2024-01-15T01:37:28;0.10;99.90
33741;DHT22;20065;48.380;10.892;2024-01-15T01:40:14;0.10;99.90
33741;DHT22;20065;48.380;10.892;2024-01-15T01:43:03;0.10;99.90
33741;DHT22;20065;48.380;10.892;2024-01-15T01:45:49;0.10;99.90
33741;DHT22;20065;48.380;10.892;2024-01-15T01:48:35;0.10;99.90
33741;DHT22;20065;48.380;10.892;2024-01-15T01:51:23;0.10;99.90
33741;DHT22;20065;48.380;10.892;2024-01-15T01:54:10;0.10;99.90
33741;DHT22;20065;48.380;10.892;2024-01-15T01:56:59;0.10;99.90
33741;DHT22;20065;48.380;10.892;2024-01-15T01:59:48;0.10;99.90
33741;DHT22;20065;48.380;10.892;2024-01-15T02:02:34;0.10;99.90
33741;DHT22;20065;48.380;10.892;2024-01-15T02:05:21;0.10;99.90
33741;DHT22;20065;48.380;10.892;2024-01-15T02:08:08;0.00;99.90
33741;DHT22;20065;48.380;10.892;2024-01-15T02:10:54;0.10;99.90
33741;DHT22;20065;48.380;10.892;2024-01-15T02:13:40;0.00;99.90
33741;DHT22;20065;48.380;10.892;2024-01-15T02:16:27;0.00;99.90
33741;DHT22;20065;48.380;10.892;2024-01-15T02:19:17;-0.10;99.90
33741;DHT22;20065;48.380;10.892;2024-01-15T02:22:04;0.00;99.90
33741;DHT22;20065;48.380;10.892;2024-01-15T02:24:50;0.00;99.90
33741;DHT22;20065;48.380;10.892;2024-01-15T02:27:36;-0.10;99.90
33741;DHT22;20065;48.380;10.892;2024-01-15T02:30:24;-0.10;99.90
33741;DHT22;20065;48.380;10.892;2024-01-15T02:33:11;-0.20;99.90
33741;DHT22;20065;48.380;10.892;2024-01-15T02:35:58;-0.20;99.90
33741;DHT22;20065;48.380;10.892;2024-01-15T02:38:44;-0.10;99.90
33741;DHT22;20065;48.380;10.892;2024-01-15T02:41:30;-0.10;99.90
33741;DHT22;20065;48.380;10.892;2024-01-15T02:44:16;-0.20;99.90
33741;DHT22;20065;48.380;10.892;2024-01-15T02:47:02;-0.10;99.90
33741;DHT22;20065;48.380;10.892;2024-01-15T02:49:48;-0.10;99.90
33741;DHT22;20065;48.380;10.892;2024-01-15T02:52:34;-0.10;99.90
33741;DHT22;20065;48.380;10.892;2024-01-15T02:55:21;-0.20;99.90
33741;DHT22;20065;48.380;10.892;2024-01-15T02:58:07;-0.20;99.90
33741;DHT22;20065;48.380;10.892;2024-01-15T03:03:28;-0.20;99.90
33741;DHT22;20065;48.380;10.892;2024-01-15T03:06:14;-0.20;99.90
33741;DHT22;20065;48.380;10.892;2024-01-15T03:09:00;-0.20;99.90
33741;DHT22;20065;48.380;10.892;2024-01-15T03:11:46;-0.20;99.90
33741;DHT22;20065;48.380;10.892;2024-01-15T03:14:32;0.50;99.90
33741;DHT22;20065;48.380;10.892;2024-01-15T03:17:19;-0.20;99.90
33741;DHT22;20065;48.380;10.892;2024-01-15T03:20:05;-0.20;99.90
33741;DHT22;20065;48.380;10.892;2024-01-15T03:22:52;-0.20;99.90
33741;DHT22;20065;48.380;10.892;2024-01-15T03:25:38;-0.10;99.90
33741;DHT22;20065;48.380;10.892;2024-01-15T03:28:24;-0.20;99.90
33741;DHT22;20065;48.380;10.892;2024-01-15T03:31:10;-0.20;99.90
33741;DHT22;20065;48.380;10.892;2024-01-15T03:33:56;-0.20;99.90
33741;DHT22;20065;48.380;10.892;2024-01-15T03:36:42;-0.30;99.90
33741;DHT22;20065;48.380;10.892;2024-01-15T03:39:28;-0.20;99.90
33741;DHT22;20065;48.380;10.892;2024-01-15T03:42:14;-0.20;99.90
33741;DHT22;20065;48.380;10.892;2024-01-15T03:45:01;-0.20;99.90
33741;DHT22;20065;48.380;10.892;2024-01-15T03:47:47;-0.20;99.90
33741;DHT22;20065;48.380;10.892;2024-01-15T03:50:33;-0.10;99.90
33741;DHT22;20065;48.380;10.892;2024-01-15T03:53:19;-0.10;99.90
33741;DHT22;20065;48.380;10.892;2024-01-15T03:56:05;-0.10;99.90
33741;DHT22;20065;48.380;10.892;2024-01-15T03:58:51;-0.10;99.90
33741;DHT22;20065;48.380;10.892;2024-01-15T04:01:37;0.00;99.90
33741;DHT22;20065;48.380;10.892;2024-01-15T04:04:23;-0.10;99.90
33741;DHT22;20065;48.380;10.892;2024-01-15T04:07:10;-0.10;99.90
33741;DHT22;20065;48.380;10.892;2024-01-15T04:09:56;-0.10;99.90
33741;DHT22;20065;48.380;10.892;2024-01-15T04:12:42;-0.20;99.90
33741;DHT22;20065;48.380;10.892;2024-01-15T04:15:28;-0.20;99.90
33741;DHT22;20065;48.380;10.892;2024-01-15T04:18:16;0.10;99.90
33741;DHT22;20065;48.380;10.892;2024-01-15T04:21:05;-0.10;99.90
33741;DHT22;20065;48.380;10.892;2024-01-15T04:23:51;-0.20;99.90
33741;DHT22;20065;48.380;10.892;2024-01-15T04:26:38;-0.20;99.90
33741;DHT22;20065;48.380;10.892;2024-01-15T04:29:24;-0.10;99.90
33741;DHT22;20065;48.380;10.892;2024-01-15T04:32:13;-0.10;99.90
33741;DHT22;20065;48.380;10.892;2024-01-15T04:34:59;-0.20;99.90
33741;DHT22;20065;48.380;10.892;2024-01-15T04:37:45;-0.10;99.90
33741;DHT22;20065;48.380;10.892;2024-01-15T04:40:31;-0.10;99.90
33741;DHT22;20065;48.380;10.892;2024-01-15T04:43:17;0.00;99.90
33741;DHT22;20065;48.380;10.892;2024-01-15T04:46:05;0.00;99.90
33741;DHT22;20065;48.380;10.892;2024-01-15T04:48:52;0.00;99.90
33741;DHT22;20065;48.380;10.892;2024-01-15T04:51:38;0.00;99.90
33741;DHT22;20065;48.380;10.892;2024-01-15T04:54:24;0.00;99.90
33741;DHT22;20065;48.380;10.892;2024-01-15T04:57:10;0.00;99.90
33741;DHT22;20065;48.380;10.892;2024-01-15T04:59:56;0.00;99.90
33741;DHT22;20065;48.380;10.892;2024-01-15T05:02:42;0.00;99.90
33741;DHT22;20065;48.380;10.892;2024-01-15T05:05:29;-0.10;99.90
33741;DHT22;20065;48.380;10.892;2024-01-15T05:08:15;0.00;99.90
33741;DHT22;20065;48.380;10.892;2024-01-15T05:11:01;0.10;99.90
33741;DHT22;20065;48.380;10.892;2024-01-15T05:13:47;0.10;99.90
33741;DHT22;20065;48.380;10.892;2024-01-15T05:16:33;0.10;99.90
33741;DHT22;20065;48.380;10.892;2024-01-15T05:19:19;0.10;99.90
33741;DHT22;20065;48.380;10.892;2024-01-15T05:22:06;0.20;99.90
33741;DHT22;20065;48.380;10.892;2024-01-15T05:24:52;0.20;99.90
33741;DHT22;20065;48.380;10.892;2024-01-15T05:27:38;0.20;99.90
33741;DHT22;20065;48.380;10.892;2024-01-15T05:30:24;0.20;99.90
33741;DHT22;20065;48.380;10.892;2024-01-15T05:33:10;0.30;99.90
33741;DHT22;20065;48.380;10.892;2024-01-15T05:35:56;0.30;99.90
33741;DHT22;20065;48.380;10.892;2024-01-15T05:38:44;0.30;99.90
33741;DHT22;20065;48.380;10.892;2024-01-15T05:41:30;0.40;99.90
33741;DHT22;20065;48.380;10.892;2024-01-15T05:44:17;0.30;99.90
33741;DHT22;20065;48.380;10.892;2024-01-15T05:47:03;0.30;99.90
33741;DHT22;20065;48.380;10.892;2024-01-15T05:49:50;0.30;99.90
33741;DHT22;20065;48.380;10.892;2024-01-15T05:52:36;0.30;99.90
33741;DHT22;20065;48.380;10.892;2024-01-15T05:55:22;0.20;99.90
33741;DHT22;20065;48.380;10.892;2024-01-15T05:58:08;0.20;99.90
33741;DHT22;20065;48.380;10.892;2024-01-15T06:00:54;0.20;99.90
33741;DHT22;20065;48.380;10.892;2024-01-15T06:03:40;0.20;99.90
33741;DHT22;20065;48.380;10.892;2024-01-15T06:06:26;0.20;99.90
33741;DHT22;20065;48.380;10.892;2024-01-15T06:09:12;0.20;99.90
33741;DHT22;20065;48.380;10.892;2024-01-15T06:11:59;0.20;99.90
33741;DHT22;20065;48.380;10.892;2024-01-15T06:14:45;0.20;99.90
33741;DHT22;20065;48.380;10.892;2024-01-15T06:17:31;0.20;99.90
33741;DHT22;20065;48.380;10.892;2024-01-15T06:20:17;0.20;99.90
33741;DHT22;20065;48.380;10.892;2024-01-15T06:23:04;0.20;99.90
33741;DHT22;20065;48.380;10.892;2024-01-15T06:25:50;0.40;99.90
33741;DHT22;20065;48.380;10.892;2024-01-15T06:28:36;0.20;99.90
33741;DHT22;20065;48.380;10.892;2024-01-15T06:31:22;0.30;99.90
33741;DHT22;20065;48.380;10.892;2024-01-15T06:34:08;0.30;99.90
33741;DHT22;20065;48.380;10.892;2024-01-15T06:36:54;0.30;99.90
33741;DHT22;20065;48.380;10.892;2024-01-15T06:39:40;0.30;99.90
33741;DHT22;20065;48.380;10.892;2024-01-15T06:42:26;0.30;99.90
33741;DHT22;20065;48.380;10.892;2024-01-15T06:45:13;0.30;99.90
33741;DHT22;20065;48.380;10.892;2024-01-15T06:47:59;0.30;99.90
33741;DHT22;20065;48.380;10.892;2024-01-15T06:50:45;0.30;99.90
33741;DHT22;20065;48.380;10.892;2024-01-15T06:53:32;-0.10;99.90
33741;DHT22;20065;48.380;10.892;2024-01-15T06:56:18;0.20;99.90
33741;DHT22;20065;48.380;10.892;2024-01-15T06:59:04;0.30;99.90
33741;DHT22;20065;48.380;10.892;2024-01-15T07:01:50;0.30;99.90
33741;DHT22;20065;48.380;10.892;2024-01-15T07:04:36;0.30;99.90
33741;DHT22;20065;48.380;10.892;2024-01-15T07:07:22;0.40;99.90
33741;DHT22;20065;48.380;10.892;2024-01-15T07:10:09;0.40;99.90
33741;DHT22;20065;48.380;10.892;2024-01-15T07:12:55;0.50;99.90
33741;DHT22;20065;48.380;10.892;2024-01-15T07:15:41;0.50;99.90
33741;DHT22;20065;48.380;10.892;2024-01-15T07:18:27;0.50;99.90
33741;DHT22;20065;48.380;10.892;2024-01-15T07:21:13;0.60;99.90
33741;DHT22;20065;48.380;10.892;2024-01-15T07:24:02;0.70;99.90
33741;DHT22;20065;48.380;10.892;2024-01-15T07:26:49;0.70;99.90
33741;DHT22;20065;48.380;10.892;2024-01-15T07:29:35;0.70;99.90
33741;DHT22;20065;48.380;10.892;2024-01-15T07:32:24;0.80;99.90
33741;DHT22;20065;48.380;10.892;2024-01-15T07:35:10;0.80;99.90
33741;DHT22;20065;48.380;10.892;2024-01-15T07:37:56;0.80;99.90
33741;DHT22;20065;48.380;10.892;2024-01-15T07:40:43;0.90;99.90
33741;DHT22;20065;48.380;10.892;2024-01-15T07:43:29;0.90;99.90
33741;DHT22;20065;48.380;10.892;2024-01-15T07:46:15;0.90;99.90
33741;DHT22;20065;48.380;10.892;2024-01-15T07:49:02;0.90;99.90
33741;DHT22;20065;48.380;10.892;2024-01-15T07:51:49;0.90;99.90
33741;DHT22;20065;48.380;10.892;2024-01-15T07:54:35;0.90;99.90
33741;DHT22;20065;48.380;10.892;2024-01-15T07:57:21;1.10;99.90
33741;DHT22;20065;48.380;10.892;2024-01-15T08:00:09;1.00;99.90
33741;DHT22;20065;48.380;10.892;2024-01-15T08:02:56;1.10;99.90
33741;DHT22;20065;48.380;10.892;2024-01-15T08:05:42;1.10;99.90
33741;DHT22;20065;48.380;10.892;2024-01-15T08:08:28;1.20;99.90
33741;DHT22;20065;48.380;10.892;2024-01-15T08:11:15;1.20;99.90
33741;DHT22;20065;48.380;10.892;2024-01-15T08:14:01;1.20;99.90
33741;DHT22;20065;48.380;10.892;2024-01-15T08:16:47;1.30;99.90
33741;DHT22;20065;48.380;10.892;2024-01-15T08:19:33;1.30;99.90
33741;DHT22;20065;48.380;10.892;2024-01-15T08:22:19;1.30;99.90
33741;DHT22;20065;48.380;10.892;2024-01-15T08:25:05;1.30;99.90
33741;DHT22;20065;48.380;10.892;2024-01-15T08:27:52;1.20;99.90
33741;DHT22;20065;48.380;10.892;2024-01-15T08:30:38;1.20;99.90
33741;DHT22;20065;48.380;10.892;2024-01-15T08:33:24;1.20;99.90
33741;DHT22;20065;48.380;10.892;2024-01-15T08:36:10;1.20;99.90
33741;DHT22;20065;48.380;10.892;2024-01-15T08:38:57;1.30;99.90
33741;DHT22;20065;48.380;10.892;2024-01-15T08:41:43;1.40;99.90
33741;DHT22;20065;48.380;10.892;2024-01-15T08:44:29;1.40;99.90
33741;DHT22;20065;48.380;10.892;2024-01-15T08:47:15;1.40;99.90
33741;DHT22;20065;48.380;10.892;2024-01-15T08:50:01;1.40;99.90
33741;DHT22;20065;48.380;10.892;2024-01-15T08:52:49;1.50;99.90
33741;DHT22;20065;48.380;10.892;2024-01-15T08:55:35;1.50;99.90
33741;DHT22;20065;48.380;10.892;2024-01-15T08:58:22;1.50;99.90
33741;DHT22;20065;48.380;10.892;2024-01-15T09:03:43;2.10;99.90
33741;DHT22;20065;48.380;10.892;2024-01-15T09:06:29;2.30;99.90
33741;DHT22;20065;48.380;10.892;2024-01-15T09:09:15;2.10;99.90
33741;DHT22;20065;48.380;10.892;2024-01-15T09:12:01;1.90;99.90
33741;DHT22;20065;48.380;10.892;2024-01-15T09:14:48;1.90;99.90
33741;DHT22;20065;48.380;10.892;2024-01-15T09:17:34;1.90;99.90
33741;DHT22;20065;48.380;10.892;2024-01-15T09:20:20;2.00;99.90
33741;DHT22;20065;48.380;10.892;2024-01-15T09:23:06;1.90;99.90
33741;DHT22;20065;48.380;10.892;2024-01-15T09:25:53;1.90;99.90
33741;DHT22;20065;48.380;10.892;2024-01-15T09:28:39;1.80;99.90
33741;DHT22;20065;48.380;10.892;2024-01-15T09:31:25;1.80;99.90
33741;DHT22;20065;48.380;10.892;2024-01-15T09:34:11;1.80;99.90
33741;DHT22;20065;48.380;10.892;2024-01-15T09:36:57;1.80;99.90
33741;DHT22;20065;48.380;10.892;2024-01-15T09:39:43;1.80;99.90
33741;DHT22;20065;48.380;10.892;2024-01-15T09:42:30;1.80;99.90
33741;DHT22;20065;48.380;10.892;2024-01-15T09:45:16;1.80;99.90
33741;DHT22;20065;48.380;10.892;2024-01-15T09:48:03;1.90;99.90
33741;DHT22;20065;48.380;10.892;2024-01-15T09:50:49;1.90;99.90
33741;DHT22;20065;48.380;10.892;2024-01-15T09:53:37;1.90;99.90
33741;DHT22;20065;48.380;10.892;2024-01-15T09:56:24;1.80;99.90
33741;DHT22;20065;48.380;10.892;2024-01-15T09:59:10;1.80;99.90
33741;DHT22;20065;48.380;10.892;2024-01-15T10:01:57;1.70;99.90
33741;DHT22;20065;48.380;10.892;2024-01-15T10:04:45;1.80;99.90
33741;DHT22;20065;48.380;10.892;2024-01-15T10:07:34;1.80;99.90
33741;DHT22;20065;48.380;10.892;2024-01-15T10:10:20;1.80;99.90
33741;DHT22;20065;48.380;10.892;2024-01-15T10:13:08;2.10;99.90
33741;DHT22;20065;48.380;10.892;2024-01-15T10:15:54;2.20;99.90
33741;DHT22;20065;48.380;10.892;2024-01-15T10:18:40;2.30;99.90
33741;DHT22;20065;48.380;10.892;2024-01-15T10:21:26;2.50;99.90
33741;DHT22;20065;48.380;10.892;2024-01-15T10:24:12;2.50;99.90
33741;DHT22;20065;48.380;10.892;2024-01-15T10:27:05;2.70;99.90
33741;DHT22;20065;48.380;10.892;2024-01-15T10:29:52;2.80;99.90
33741;DHT22;20065;48.380;10.892;2024-01-15T10:32:39;3.40;99.90
33741;DHT22;20065;48.380;10.892;2024-01-15T10:35:31;3.80;99.50
33741;DHT22;20065;48.380;10.892;2024-01-15T10:38:17;3.40;99.00
33741;DHT22;20065;48.380;10.892;2024-01-15T10:41:07;3.00;99.70
33741;DHT22;20065;48.380;10.892;2024-01-15T10:43:54;2.90;99.90
33741;DHT22;20065;48.380;10.892;2024-01-15T10:46:41;3.00;99.90
33741;DHT22;20065;48.380;10.892;2024-01-15T10:49:27;2.90;99.90
33741;DHT22;20065;48.380;10.892;2024-01-15T10:52:15;2.90;99.90
33741;DHT22;20065;48.380;10.892;2024-01-15T10:55:03;2.90;99.90
33741;DHT22;20065;48.380;10.892;2024-01-15T10:57:50;2.80;99.90
33741;DHT22;20065;48.380;10.892;2024-01-15T11:00:37;2.60;99.90
33741;DHT22;20065;48.380;10.892;2024-01-15T11:03:24;2.50;99.90
33741;DHT22;20065;48.380;10.892;2024-01-15T11:06:19;2.50;99.90
33741;DHT22;20065;48.380;10.892;2024-01-15T11:09:07;2.50;99.90
33741;DHT22;20065;48.380;10.892;2024-01-15T11:12:07;2.50;99.90
33741;DHT22;20065;48.380;10.892;2024-01-15T11:15:02;2.50;99.90
33741;DHT22;20065;48.380;10.892;2024-01-15T11:17:59;2.60;99.90
33741;DHT22;20065;48.380;10.892;2024-01-15T11:24:00;2.60;99.90
33741;DHT22;20065;48.380;10.892;2024-01-15T11:26:47;2.70;99.90
33741;DHT22;20065;48.380;10.892;2024-01-15T11:29:34;2.60;99.90
33741;DHT22;20065;48.380;10.892;2024-01-15T11:32:33;2.60;99.90
33741;DHT22;20065;48.380;10.892;2024-01-15T11:35:19;2.60;99.90
33741;DHT22;20065;48.380;10.892;2024-01-15T11:38:05;2.60;99.90
33741;DHT22;20065;48.380;10.892;2024-01-15T11:40:53;2.60;99.90
33741;DHT22;20065;48.380;10.892;2024-01-15T11:43:39;2.50;99.90
33741;DHT22;20065;48.380;10.892;2024-01-15T11:46:28;2.60;99.90
33741;DHT22;20065;48.380;10.892;2024-01-15T11:52:20;2.90;99.90
33741;DHT22;20065;48.380;10.892;2024-01-15T11:55:19;2.90;99.90
33741;DHT22;20065;48.380;10.892;2024-01-15T11:58:09;2.90;99.90
33741;DHT22;20065;48.380;10.892;2024-01-15T12:00:57;2.80;99.90
33741;DHT22;20065;48.380;10.892;2024-01-15T12:03:44;2.70;99.90
33741;DHT22;20065;48.380;10.892;2024-01-15T12:06:32;2.50;99.90
33741;DHT22;20065;48.380;10.892;2024-01-15T12:09:19;2.60;99.90
33741;DHT22;20065;48.380;10.892;2024-01-15T12:12:10;2.50;99.90
33741;DHT22;20065;48.380;10.892;2024-01-15T12:15:01;2.60;99.90
33741;DHT22;20065;48.380;10.892;2024-01-15T12:17:47;2.60;99.90
33741;DHT22;20065;48.380;10.892;2024-01-15T12:20:34;2.60;99.90
33741;DHT22;20065;48.380;10.892;2024-01-15T12:23:20;2.50;99.90
33741;DHT22;20065;48.380;10.892;2024-01-15T12:26:06;2.60;99.90
33741;DHT22;20065;48.380;10.892;2024-01-15T12:28:53;2.60;99.90
33741;DHT22;20065;48.380;10.892;2024-01-15T12:31:40;2.60;99.90
33741;DHT22;20065;48.380;10.892;2024-01-15T12:34:29;2.70;99.90
33741;DHT22;20065;48.380;10.892;2024-01-15T12:37:20;2.80;99.90
33741;DHT22;20065;48.380;10.892;2024-01-15T12:40:08;2.90;99.90
33741;DHT22;20065;48.380;10.892;2024-01-15T12:42:55;3.10;99.90
33741;DHT22;20065;48.380;10.892;2024-01-15T12:45:45;2.90;99.90
33741;DHT22;20065;48.380;10.892;2024-01-15T12:48:32;2.90;99.90
33741;DHT22;20065;48.380;10.892;2024-01-15T12:51:18;2.80;99.90
33741;DHT22;20065;48.380;10.892;2024-01-15T12:54:04;2.80;99.90
33741;DHT22;20065;48.380;10.892;2024-01-15T12:56:51;2.80;99.90
33741;DHT22;20065;48.380;10.892;2024-01-15T12:59:37;2.70;99.90
33741;DHT22;20065;48.380;10.892;2024-01-15T13:02:24;2.60;99.90
33741;DHT22;20065;48.380;10.892;2024-01-15T13:05:11;2.60;99.90
33741;DHT22;20065;48.380;10.892;2024-01-15T13:07:57;2.70;99.90
33741;DHT22;20065;48.380;10.892;2024-01-15T13:10:45;2.70;99.90
33741;DHT22;20065;48.380;10.892;2024-01-15T13:13:31;2.60;99.90
33741;DHT22;20065;48.380;10.892;2024-01-15T13:16:20;2.50;99.90
33741;DHT22;20065;48.380;10.892;2024-01-15T13:19:10;2.40;99.90
33741;DHT22;20065;48.380;10.892;2024-01-15T13:21:59;2.40;99.90
33741;DHT22;20065;48.380;10.892;2024-01-15T13:24:46;2.50;99.90
33741;DHT22;20065;48.380;10.892;2024-01-15T13:27:32;2.50;99.90
33741;DHT22;20065;48.380;10.892;2024-01-15T13:30:20;2.40;99.90
33741;DHT22;20065;48.380;10.892;2024-01-15T13:33:12;2.40;99.90
33741;DHT22;20065;48.380;10.892;2024-01-15T13:36:00;2.40;99.90
33741;DHT22;20065;48.380;10.892;2024-01-15T13:38:46;2.40;99.90
33741;DHT22;20065;48.380;10.892;2024-01-15T13:41:32;2.40;99.90
33741;DHT22;20065;48.380;10.892;2024-01-15T13:44:18;2.30;99.90
33741;DHT22;20065;48.380;10.892;2024-01-15T13:47:05;2.30;99.90
33741;DHT22;20065;48.380;10.892;2024-01-15T13:49:51;2.40;99.90
33741;DHT22;20065;48.380;10.892;2024-01-15T13:52:37;2.40;99.90
33741;DHT22;20065;48.380;10.892;2024-01-15T13:55:23;2.30;99.90
33741;DHT22;20065;48.380;10.892;2024-01-15T13:58:13;2.50;99.90
33741;DHT22;20065;48.380;10.892;2024-01-15T14:01:06;2.20;99.90
33741;DHT22;20065;48.380;10.892;2024-01-15T14:03:56;2.20;99.90
33741;DHT22;20065;48.380;10.892;2024-01-15T14:06:42;2.20;99.90
33741;DHT22;20065;48.380;10.892;2024-01-15T14:09:28;2.20;99.90
33741;DHT22;20065;48.380;10.892;2024-01-15T14:12:15;2.20;99.90
33741;DHT22;20065;48.380;10.892;2024-01-15T14:15:02;2.20;99.90
33741;DHT22;20065;48.380;10.892;2024-01-15T14:17:49;2.20;99.90
33741;DHT22;20065;48.380;10.892;2024-01-15T14:20:36;2.20;99.90
33741;DHT22;20065;48.380;10.892;2024-01-15T14:23:28;2.20;99.90
33741;DHT22;20065;48.380;10.892;2024-01-15T14:26:14;2.30;99.90
33741;DHT22;20065;48.380;10.892;2024-01-15T14:29:00;2.20;99.90
33741;DHT22;20065;48.380;10.892;2024-01-15T14:31:53;2.30;99.90
33741;DHT22;20065;48.380;10.892;2024-01-15T14:34:42;2.40;99.90
33741;DHT22;20065;48.380;10.892;2024-01-15T14:37:29;2.30;99.90
33741;DHT22;20065;48.380;10.892;2024-01-15T14:40:16;2.00;99.90
33741;DHT22;20065;48.380;10.892;2024-01-15T14:43:02;2.20;99.90
33741;DHT22;20065;48.380;10.892;2024-01-15T14:45:49;2.10;99.90
33741;DHT22;20065;48.380;10.892;2024-01-15T14:48:36;1.90;99.90
33741;DHT22;20065;48.380;10.892;2024-01-15T14:51:22;1.80;99.90
33741;DHT22;20065;48.380;10.892;2024-01-15T14:54:08;1.80;99.90
33741;DHT22;20065;48.380;10.892;2024-01-15T14:56:55;1.80;99.90
33741;DHT22;20065;48.380;10.892;2024-01-15T14:59:42;1.70;99.90
33741;DHT22;20065;48.380;10.892;2024-01-15T15:02:28;1.80;99.90
33741;DHT22;20065;48.380;10.892;2024-01-15T15:05:15;1.80;99.90
33741;DHT22;20065;48.380;10.892;2024-01-15T15:08:02;1.80;99.90
33741;DHT22;20065;48.380;10.892;2024-01-15T15:10:54;1.80;99.90
33741;DHT22;20065;48.380;10.892;2024-01-15T15:13:42;1.70;99.90
33741;DHT22;20065;48.380;10.892;2024-01-15T15:16:28;1.60;99.90
33741;DHT22;20065;48.380;10.892;2024-01-15T15:19:15;1.60;99.90
33741;DHT22;20065;48.380;10.892;2024-01-15T15:22:01;1.60;99.90
33741;DHT22;20065;48.380;10.892;2024-01-15T15:24:47;1.60;99.90
33741;DHT22;20065;48.380;10.892;2024-01-15T15:27:34;1.70;99.90
33741;DHT22;20065;48.380;10.892;2024-01-15T15:30:21;1.50;99.90
33741;DHT22;20065;48.380;10.892;2024-01-15T15:33:10;1.50;99.90
33741;DHT22;20065;48.380;10.892;2024-01-15T15:35:57;1.40;99.90
33741;DHT22;20065;48.380;10.892;2024-01-15T15:38:45;1.40;99.90
33741;DHT22;20065;48.380;10.892;2024-01-15T15:41:31;1.30;99.90
33741;DHT22;20065;48.380;10.892;2024-01-15T15:44:17;1.30;99.90
33741;DHT22;20065;48.380;10.892;2024-01-15T15:47:04;1.40;99.90
33741;DHT22;20065;48.380;10.892;2024-01-15T15:49:50;1.40;99.90
33741;DHT22;20065;48.380;10.892;2024-01-15T15:52:36;1.30;99.90
33741;DHT22;20065;48.380;10.892;2024-01-15T15:55:23;1.30;99.90
33741;DHT22;20065;48.380;10.892;2024-01-15T15:58:09;1.30;99.90
33741;DHT22;20065;48.380;10.892;2024-01-15T16:00:56;1.30;99.90
33741;DHT22;20065;48.380;10.892;2024-01-15T16:03:44;1.30;99.90
33741;DHT22;20065;48.380;10.892;2024-01-15T16:06:30;1.50;99.90
33741;DHT22;20065;48.380;10.892;2024-01-15T16:09:17;1.30;99.90
33741;DHT22;20065;48.380;10.892;2024-01-15T16:12:04;1.50;99.90
33741;DHT22;20065;48.380;10.892;2024-01-15T16:14:50;1.40;99.90
33741;DHT22;20065;48.380;10.892;2024-01-15T16:17:36;1.50;99.90
33741;DHT22;20065;48.380;10.892;2024-01-15T16:20:23;1.50;99.90
33741;DHT22;20065;48.380;10.892;2024-01-15T16:23:09;1.60;99.90
33741;DHT22;20065;48.380;10.892;2024-01-15T16:25:55;1.60;99.90
33741;DHT22;20065;48.380;10.892;2024-01-15T16:28:41;1.50;99.90
33741;DHT22;20065;48.380;10.892;2024-01-15T16:31:27;1.40;99.90
33741;DHT22;20065;48.380;10.892;2024-01-15T16:34:14;1.40;99.90
33741;DHT22;20065;48.380;10.892;2024-01-15T16:37:02;1.30;99.90
33741;DHT22;20065;48.380;10.892;2024-01-15T16:39:50;1.20;99.90
33741;DHT22;20065;48.380;10.892;2024-01-15T16:42:36;1.10;99.90
33741;DHT22;20065;48.380;10.892;2024-01-15T16:45:24;1.10;99.90
33741;DHT22;20065;48.380;10.892;2024-01-15T16:48:10;1.00;99.90
33741;DHT22;20065;48.380;10.892;2024-01-15T16:51:00;0.90;99.90
33741;DHT22;20065;48.380;10.892;2024-01-15T16:53:46;0.90;99.90
33741;DHT22;20065;48.380;10.892;2024-01-15T16:56:52;0.80;99.90
33741;DHT22;20065;48.380;10.892;2024-01-15T16:59:38;0.80;99.90
33741;DHT22;20065;48.380;10.892;2024-01-15T17:02:24;0.80;99.90
33741;DHT22;20065;48.380;10.892;2024-01-15T17:05:11;0.70;99.90
33741;DHT22;20065;48.380;10.892;2024-01-15T17:07:57;0.70;99.90
33741;DHT22;20065;48.380;10.892;2024-01-15T17:10:43;0.60;99.90
33741;DHT22;20065;48.380;10.892;2024-01-15T17:13:31;0.60;99.90
33741;DHT22;20065;48.380;10.892;2024-01-15T17:16:21;0.70;99.90
33741;DHT22;20065;48.380;10.892;2024-01-15T17:19:09;0.80;99.90
33741;DHT22;20065;48.380;10.892;2024-01-15T17:21:56;0.80;99.90
33741;DHT22;20065;48.380;10.892;2024-01-15T17:24:42;0.80;99.90
33741;DHT22;20065;48.380;10.892;2024-01-15T17:27:28;0.80;99.90
33741;DHT22;20065;48.380;10.892;2024-01-15T17:30:15;0.90;99.90
33741;DHT22;20065;48.380;10.892;2024-01-15T17:33:01;0.90;99.90
33741;DHT22;20065;48.380;10.892;2024-01-15T17:35:55;0.80;99.90
33741;DHT22;20065;48.380;10.892;2024-01-15T17:38:45;0.80;99.90
33741;DHT22;20065;48.380;10.892;2024-01-15T17:41:31;0.70;99.90